createdAt,value
2022-12-15T00:01:12.661Z,37.22
2022-12-15T00:03:39.688Z,32.00
2022-12-15T00:06:06.693Z,38.22
2022-12-15T00:08:33.588Z,32.97
2022-12-15T00:11:00.469Z,34.97
2022-12-15T00:13:27.526Z,34.08
2022-12-15T00:15:54.617Z,35.80
2022-12-15T00:18:21.552Z,35.75
2022-12-15T00:20:48.449Z,34.45
2022-12-15T00:23:15.372Z,33.78
2022-12-15T00:25:42.269Z,37.10
2022-12-15T00:28:09.181Z,36.40
2022-12-15T00:30:36.082Z,34.60
2022-12-15T00:33:03.030Z,34.42
2022-12-15T00:35:29.931Z,38.22
2022-12-15T00:37:56.869Z,35.28
2022-12-15T00:40:23.780Z,34.40
2022-12-15T00:42:50.681Z,33.35
2022-12-15T00:45:17.590Z,34.75
2022-12-15T00:47:44.509Z,35.95
2022-12-15T00:50:11.381Z,36.65
2022-12-15T00:52:38.486Z,37.05
2022-12-15T00:55:05.512Z,33.20
2022-12-15T00:57:32.497Z,36.60
2022-12-15T01:00:02.036Z,40.30
2022-12-15T01:02:32.357Z,31.85
2022-12-15T01:05:02.477Z,33.30
2022-12-15T01:10:10.234Z,29.20
2022-12-15T01:12:38.505Z,34.13
2022-12-15T01:15:05.436Z,35.45
2022-12-15T01:17:32.374Z,33.65
2022-12-15T01:19:59.270Z,31.88
2022-12-15T01:22:26.208Z,32.72
2022-12-15T01:24:53.110Z,35.45
2022-12-15T01:27:20.063Z,35.28
2022-12-15T01:29:57.318Z,33.00
2022-12-15T01:32:24.329Z,31.60
2022-12-15T01:34:55.842Z,36.72
2022-12-15T01:37:22.786Z,35.15
2022-12-15T01:39:49.711Z,35.30
2022-12-15T01:42:16.602Z,27.45
2022-12-15T01:44:43.503Z,28.65
2022-12-15T01:47:10.450Z,33.17
2022-12-15T01:49:37.372Z,30.13
2022-12-15T01:52:04.277Z,32.28
2022-12-15T01:54:31.173Z,31.42
2022-12-15T01:56:58.063Z,31.27
2022-12-15T01:59:24.948Z,31.63
2022-12-15T02:01:52.194Z,29.95
2022-12-15T02:04:19.176Z,31.73
2022-12-15T02:06:46.118Z,34.50
2022-12-15T02:09:13.036Z,36.78
2022-12-15T02:11:39.996Z,32.00
2022-12-15T02:14:06.873Z,30.35
2022-12-15T02:16:33.810Z,29.52
2022-12-15T02:19:00.785Z,29.95
2022-12-15T02:21:27.655Z,29.33
2022-12-15T02:23:54.546Z,30.92
2022-12-15T02:26:21.430Z,32.03
2022-12-15T02:28:48.339Z,30.88
2022-12-15T02:31:15.257Z,32.83
2022-12-15T02:33:42.176Z,29.45
2022-12-15T02:36:09.060Z,28.95
2022-12-15T02:38:35.989Z,31.98
2022-12-15T02:41:02.888Z,30.02
2022-12-15T02:43:30.121Z,28.90
2022-12-15T02:45:57.348Z,27.02
2022-12-15T02:48:24.333Z,33.60
2022-12-15T02:50:51.209Z,28.90
2022-12-15T02:53:18.170Z,32.15
2022-12-15T02:55:45.086Z,30.65
2022-12-15T02:58:11.982Z,35.17
2022-12-15T03:00:38.920Z,29.58
2022-12-15T03:03:05.947Z,28.98
2022-12-15T03:05:32.895Z,31.98
2022-12-15T03:07:59.779Z,32.53
2022-12-15T03:10:26.662Z,29.05
2022-12-15T03:12:53.552Z,27.65
2022-12-15T03:15:20.424Z,28.83
2022-12-15T03:17:47.382Z,30.02
2022-12-15T03:20:14.272Z,29.80
2022-12-15T03:22:41.332Z,28.77
2022-12-15T03:25:08.249Z,28.17
2022-12-15T03:27:35.180Z,29.30
2022-12-15T03:30:02.093Z,29.05
2022-12-15T03:32:29.016Z,32.10
2022-12-15T03:34:55.933Z,31.55
2022-12-15T03:37:24.890Z,26.13
2022-12-15T03:39:51.920Z,26.90
2022-12-15T03:42:18.991Z,31.08
2022-12-15T03:44:48.603Z,30.95
2022-12-15T03:47:18.843Z,31.13
2022-12-15T03:49:45.864Z,27.92
2022-12-15T03:52:14.905Z,29.73
2022-12-15T03:54:43.046Z,31.38
2022-12-15T03:57:11.309Z,27.77
2022-12-15T03:59:38.411Z,34.33
2022-12-15T04:02:21.005Z,28.38
2022-12-15T04:04:48.205Z,30.10
2022-12-15T04:07:15.321Z,33.00
2022-12-15T04:09:46.809Z,29.08
2022-12-15T04:12:13.982Z,28.15
2022-12-15T04:14:42.146Z,28.70
2022-12-15T04:17:15.209Z,28.65
2022-12-15T04:19:45.103Z,28.88
2022-12-15T04:22:17.676Z,30.58
2022-12-15T04:24:44.916Z,29.55
2022-12-15T04:27:11.837Z,30.58
2022-12-15T04:29:38.728Z,24.30
2022-12-15T04:32:05.655Z,26.15
2022-12-15T04:34:32.746Z,27.77
2022-12-15T04:39:43.526Z,25.98
2022-12-15T04:42:14.762Z,25.45
2022-12-15T04:44:41.928Z,27.92
2022-12-15T04:47:09.073Z,27.38
2022-12-15T04:55:05.450Z,28.35
2022-12-15T04:57:32.625Z,29.27
2022-12-15T05:00:15.334Z,25.92
2022-12-15T05:02:46.131Z,28.45
2022-12-15T05:05:16.935Z,25.83
2022-12-15T05:07:43.884Z,30.23
2022-12-15T05:10:14.871Z,27.45
2022-12-15T05:12:42.322Z,27.60
2022-12-15T05:15:09.221Z,24.98
2022-12-15T05:17:41.322Z,27.05
2022-12-15T05:20:08.860Z,27.65
2022-12-15T05:22:35.809Z,31.27
2022-12-15T05:25:02.757Z,29.27
2022-12-15T05:27:29.664Z,27.65
2022-12-15T05:29:56.587Z,27.65
2022-12-15T05:32:23.594Z,27.92
2022-12-15T05:34:50.482Z,26.83
2022-12-15T05:40:04.284Z,30.38
2022-12-15T05:42:31.222Z,27.50
2022-12-15T05:44:58.142Z,24.65
2022-12-15T05:47:25.017Z,23.27
2022-12-15T05:49:54.211Z,24.75
2022-12-15T05:52:21.139Z,24.55
2022-12-15T05:54:48.048Z,24.10
2022-12-15T05:57:15.045Z,25.58
2022-12-15T05:59:41.997Z,27.27
2022-12-15T06:02:08.929Z,29.15
2022-12-15T06:04:35.992Z,27.98
2022-12-15T06:07:02.950Z,23.25
2022-12-15T06:09:30.056Z,23.55
2022-12-15T06:11:56.942Z,26.85
2022-12-15T06:14:23.836Z,26.70
2022-12-15T06:16:51.696Z,25.08
2022-12-15T06:19:18.781Z,26.85
2022-12-15T06:21:45.670Z,26.48
2022-12-15T06:24:12.572Z,24.40
2022-12-15T06:26:39.492Z,26.42
2022-12-15T06:29:06.385Z,25.45
2022-12-15T06:31:34.491Z,27.38
2022-12-15T06:34:02.631Z,24.80
2022-12-15T06:36:29.618Z,25.70
2022-12-15T06:38:56.523Z,26.27
2022-12-15T06:41:23.416Z,24.52
2022-12-15T06:43:50.310Z,26.20
2022-12-15T06:46:17.295Z,26.27
2022-12-15T06:48:44.252Z,24.23
2022-12-15T06:51:16.793Z,25.13
2022-12-15T06:53:44.170Z,24.73
2022-12-15T06:56:11.066Z,23.52
2022-12-15T06:58:37.976Z,27.23
2022-12-15T07:01:04.873Z,25.63
2022-12-15T07:03:32.647Z,28.83
2022-12-15T07:05:59.830Z,25.45
2022-12-15T07:08:31.408Z,25.83
2022-12-15T07:11:00.093Z,26.65
2022-12-15T07:13:27.004Z,24.90
2022-12-15T07:15:53.908Z,26.77
2022-12-15T07:18:21.040Z,28.05
2022-12-15T07:20:47.921Z,25.27
2022-12-15T07:23:16.888Z,24.50
2022-12-15T07:25:43.782Z,30.15
2022-12-15T07:28:10.678Z,26.25
2022-12-15T07:30:39.105Z,25.77
2022-12-15T07:33:06.136Z,28.27
2022-12-15T07:35:33.028Z,25.65
2022-12-15T07:37:59.933Z,25.60
2022-12-15T07:40:26.885Z,26.25
2022-12-15T07:42:53.837Z,23.73
2022-12-15T07:48:11.214Z,26.67
2022-12-15T07:50:38.162Z,29.90
2022-12-15T07:53:05.060Z,24.55
2022-12-15T07:55:50.409Z,25.90
2022-12-15T07:58:18.826Z,25.35
2022-12-15T08:00:48.939Z,25.45
2022-12-15T08:03:16.226Z,27.33
2022-12-15T08:05:43.240Z,24.17
2022-12-15T08:08:15.225Z,24.88
2022-12-15T08:10:42.369Z,23.65
2022-12-15T08:13:09.253Z,23.05
2022-12-15T08:15:36.141Z,22.15
2022-12-15T08:18:03.087Z,24.50
2022-12-15T08:20:29.992Z,25.63
2022-12-15T08:22:56.876Z,23.60
2022-12-15T08:25:23.765Z,24.50
2022-12-15T08:27:50.666Z,23.25
2022-12-15T08:30:17.608Z,24.10
2022-12-15T08:32:51.625Z,22.40
2022-12-15T08:35:46.950Z,23.80
2022-12-15T08:38:06.034Z,22.63
2022-12-15T08:40:32.976Z,26.30
2022-12-15T08:42:59.870Z,28.55
2022-12-15T08:45:26.772Z,24.02
2022-12-15T08:47:53.681Z,23.83
2022-12-15T08:50:20.580Z,23.08
2022-12-15T08:53:13.816Z,24.02
2022-12-15T08:55:34.389Z,25.48
2022-12-15T08:58:01.331Z,26.92
2022-12-15T09:00:28.230Z,23.48
2022-12-15T09:02:55.186Z,24.45
2022-12-15T09:05:22.111Z,25.48
2022-12-15T09:07:49.034Z,24.50
2022-12-15T09:10:17.133Z,27.67
2022-12-15T09:12:44.026Z,25.48
2022-12-15T09:15:13.353Z,27.13
2022-12-15T09:17:40.241Z,26.35
2022-12-15T09:20:07.147Z,24.40
2022-12-15T09:22:34.094Z,23.63
2022-12-15T09:25:06.023Z,26.17
2022-12-15T09:27:32.902Z,24.55
2022-12-15T09:29:59.809Z,24.40
2022-12-15T09:32:26.701Z,22.60
2022-12-15T09:34:53.609Z,23.67
2022-12-15T09:37:20.512Z,25.75
2022-12-15T09:39:47.410Z,24.02
2022-12-15T09:42:14.294Z,22.48
2022-12-15T10:01:20.616Z,24.67
2022-12-15T10:03:47.688Z,24.20
2022-12-15T10:06:18.973Z,26.45
2022-12-15T10:08:50.367Z,24.27
2022-12-15T10:11:17.714Z,25.33
2022-12-15T10:13:44.601Z,27.10
2022-12-15T10:16:12.179Z,24.08
2022-12-15T10:18:39.115Z,23.48
2022-12-15T10:21:06.014Z,21.40
2022-12-15T10:23:33.315Z,25.13
2022-12-15T10:26:00.477Z,28.80
2022-12-15T10:28:27.375Z,24.75
2022-12-15T10:30:54.342Z,23.58
2022-12-15T10:33:22.170Z,23.40
2022-12-15T10:35:51.553Z,21.58
2022-12-15T10:38:18.430Z,24.90
2022-12-15T10:40:45.342Z,24.15
2022-12-15T10:43:17.623Z,23.65
2022-12-15T10:45:44.553Z,28.00
2022-12-15T10:48:11.461Z,23.17
2022-12-15T10:50:38.389Z,24.67
2022-12-15T10:53:05.265Z,23.85
2022-12-15T10:55:32.160Z,25.30
2022-12-15T10:57:59.037Z,20.67
2022-12-15T11:00:25.984Z,24.30
2022-12-15T11:02:52.981Z,22.15
2022-12-15T11:05:20.967Z,23.30
2022-12-15T11:07:47.865Z,23.63
2022-12-15T11:10:14.776Z,23.23
2022-12-15T11:12:41.816Z,23.15
2022-12-15T11:15:08.731Z,24.88
2022-12-15T11:17:35.649Z,25.67
2022-12-15T11:20:03.614Z,25.10
2022-12-15T11:22:30.670Z,23.25
2022-12-15T11:27:44.489Z,25.52
2022-12-15T11:30:11.407Z,23.10
2022-12-15T11:32:38.299Z,21.58
2022-12-15T11:35:05.208Z,22.70
2022-12-15T11:42:08.575Z,21.73
2022-12-15T11:43:21.145Z,23.20
2022-12-15T11:45:48.035Z,24.77
2022-12-15T11:48:15.900Z,24.38
2022-12-15T11:50:42.825Z,25.85
2022-12-15T11:53:09.739Z,25.88
2022-12-15T11:55:41.242Z,21.30
2022-12-15T11:58:08.619Z,19.92
2022-12-15T12:00:35.517Z,23.00
2022-12-15T12:03:02.430Z,21.20
2022-12-15T12:05:29.402Z,24.38
2022-12-15T12:07:56.333Z,19.95
2022-12-15T12:10:23.802Z,21.05
2022-12-15T12:12:50.712Z,23.08
2022-12-15T12:15:17.603Z,22.70
2022-12-15T12:17:44.486Z,18.83
2022-12-15T12:20:12.397Z,23.17
2022-12-15T12:22:39.328Z,24.88
2022-12-15T12:25:06.229Z,21.85
2022-12-15T12:27:33.134Z,22.08
2022-12-15T12:30:00.028Z,24.00
2022-12-15T12:32:26.932Z,22.08
2022-12-15T12:34:53.832Z,21.90
2022-12-15T12:37:40.742Z,21.77
2022-12-15T12:40:07.661Z,20.17
2022-12-15T12:42:34.613Z,23.83
2022-12-15T12:45:01.509Z,21.30
2022-12-15T12:47:28.434Z,19.85
2022-12-15T12:49:58.710Z,22.08
2022-12-15T12:52:25.895Z,22.88
2022-12-15T12:54:52.869Z,24.02
2022-12-15T12:57:19.792Z,19.17
2022-12-15T12:59:48.937Z,20.15
2022-12-15T13:02:16.204Z,21.80
2022-12-15T13:04:43.242Z,21.88
2022-12-15T13:07:12.922Z,21.85
2022-12-15T13:09:40.023Z,22.25
2022-12-15T13:14:53.849Z,22.15
2022-12-15T13:17:28.232Z,27.55
2022-12-15T13:19:55.253Z,22.90
2022-12-15T13:22:22.192Z,23.08
2022-12-15T13:24:55.456Z,23.38
2022-12-15T13:27:25.420Z,22.75
2022-12-15T13:29:52.499Z,21.67
2022-12-15T13:32:19.522Z,21.05
2022-12-15T13:34:48.106Z,21.25
2022-12-15T13:37:15.831Z,19.98
2022-12-15T13:39:42.909Z,21.15
2022-12-15T13:42:33.241Z,18.45
2022-12-15T13:45:01.868Z,21.42
2022-12-15T13:47:28.857Z,20.42
2022-12-15T13:50:01.443Z,19.27
2022-12-15T13:53:08.489Z,18.27
2022-12-15T13:55:16.304Z,18.95
2022-12-15T13:57:43.476Z,21.58
2022-12-15T14:00:32.897Z,21.98
2022-12-15T14:02:59.866Z,23.98
2022-12-15T14:05:26.838Z,19.77
2022-12-15T14:07:55.260Z,22.52
2022-12-15T14:10:24.635Z,21.63
2022-12-15T14:12:51.605Z,22.92
2022-12-15T14:15:18.580Z,21.42
2022-12-15T14:17:45.485Z,21.65
2022-12-15T14:20:12.600Z,18.10
2022-12-15T14:22:39.497Z,21.23
2022-12-15T14:25:06.373Z,22.38
2022-12-15T14:27:33.283Z,23.38
2022-12-15T14:30:01.022Z,21.73
2022-12-15T14:32:28.007Z,21.25
2022-12-15T14:34:54.937Z,19.88
2022-12-15T14:37:21.934Z,21.73
2022-12-15T14:39:50.431Z,22.55
2022-12-15T14:42:17.593Z,20.70
2022-12-15T14:44:48.067Z,20.42
2022-12-15T14:47:16.998Z,22.58
2022-12-15T14:49:43.903Z,20.00
2022-12-15T14:52:10.805Z,22.30
2022-12-15T14:57:34.683Z,19.83
2022-12-15T15:02:53.010Z,21.90
2022-12-15T15:03:07.288Z,21.10
2022-12-15T15:05:33.920Z,21.85
2022-12-15T15:08:11.024Z,20.40
2022-12-15T15:10:37.947Z,22.40
2022-12-15T15:13:04.845Z,20.92
2022-12-15T15:15:32.828Z,23.98
2022-12-15T15:17:59.736Z,20.02
2022-12-15T15:20:26.617Z,22.23
2022-12-15T15:22:53.525Z,19.75
2022-12-15T15:25:22.994Z,18.05
2022-12-15T15:27:49.904Z,20.10
2022-12-15T15:30:16.801Z,23.77
2022-12-15T15:32:43.715Z,23.70
2022-12-15T15:35:10.595Z,21.67
2022-12-15T15:37:37.544Z,24.27
2022-12-15T15:40:05.439Z,24.27
2022-12-15T15:42:32.923Z,22.77
2022-12-15T15:44:59.917Z,25.33
2022-12-15T15:47:26.806Z,22.67
2022-12-15T15:49:53.701Z,22.30
2022-12-15T15:52:20.598Z,25.92
2022-12-15T15:54:47.483Z,25.10
2022-12-15T15:57:17.399Z,23.58
2022-12-15T15:59:44.286Z,21.42
2022-12-15T16:02:11.384Z,22.83
2022-12-15T16:04:38.380Z,26.02
2022-12-15T16:07:05.351Z,23.33
2022-12-15T16:09:32.238Z,25.90
2022-12-15T16:11:59.125Z,24.50
2022-12-15T16:14:26.015Z,28.58
2022-12-15T16:16:52.901Z,29.05
2022-12-15T16:19:19.802Z,28.15
2022-12-15T16:21:46.911Z,28.05
2022-12-15T16:24:13.794Z,30.52
2022-12-15T16:26:40.683Z,30.85
2022-12-15T16:29:07.597Z,33.75
2022-12-15T16:31:41.004Z,29.20
2022-12-15T16:34:08.798Z,28.13
2022-12-15T16:36:35.719Z,27.33
2022-12-15T16:39:02.620Z,31.15
2022-12-15T16:41:29.514Z,37.47
2022-12-15T16:43:56.428Z,31.25
2022-12-15T16:46:23.410Z,29.30
2022-12-15T16:48:51.907Z,30.13
2022-12-15T16:51:18.885Z,28.85
2022-12-15T16:53:45.784Z,28.70
2022-12-15T16:56:12.680Z,29.58
2022-12-15T16:58:39.568Z,26.58
2022-12-15T17:01:06.585Z,25.23
2022-12-15T17:03:33.784Z,25.13
2022-12-15T17:06:00.820Z,25.40
2022-12-15T17:08:27.748Z,30.63
2022-12-15T17:10:54.649Z,31.90
2022-12-15T17:13:21.553Z,28.17
2022-12-15T17:15:48.500Z,30.23
2022-12-15T17:18:15.649Z,29.38
2022-12-15T17:20:42.543Z,33.67
2022-12-15T17:23:09.485Z,28.17
2022-12-15T17:26:09.385Z,24.40
2022-12-15T17:28:23.464Z,24.83
2022-12-15T17:30:50.401Z,25.98
2022-12-15T17:33:17.343Z,27.42
2022-12-15T17:35:44.469Z,27.90
2022-12-15T17:38:11.371Z,26.45
2022-12-15T17:40:38.309Z,27.42
2022-12-15T17:43:05.203Z,28.10
2022-12-15T17:45:32.151Z,26.23
2022-12-15T17:47:59.078Z,26.33
2022-12-15T17:50:25.986Z,27.55
2022-12-15T17:52:52.881Z,23.15
2022-12-15T17:55:19.799Z,24.52
2022-12-15T17:57:46.697Z,24.73
2022-12-15T18:00:13.609Z,27.85
2022-12-15T18:02:40.647Z,28.58
2022-12-15T18:05:07.642Z,25.02
2022-12-15T18:07:34.558Z,23.38
2022-12-15T18:10:01.457Z,27.80
2022-12-15T18:12:28.355Z,32.72
2022-12-15T18:14:55.249Z,31.88
2022-12-15T18:17:22.162Z,27.88
2022-12-15T18:19:49.058Z,27.05
2022-12-15T18:22:15.933Z,27.05
2022-12-15T18:24:42.847Z,26.67
2022-12-15T18:27:09.726Z,25.92
2022-12-15T18:29:36.627Z,24.73
2022-12-15T18:32:03.588Z,24.70
2022-12-15T18:34:30.549Z,28.17
2022-12-15T18:36:57.467Z,26.27
2022-12-15T18:39:24.369Z,27.95
2022-12-15T18:41:51.250Z,29.30
2022-12-15T18:44:18.154Z,23.42
2022-12-15T18:46:48.086Z,27.90
2022-12-15T18:49:15.293Z,28.70
2022-12-15T18:51:42.191Z,24.90
2022-12-15T18:54:09.068Z,24.95
2022-12-15T18:56:35.952Z,28.10
2022-12-15T18:59:02.869Z,28.42
2022-12-15T19:01:29.844Z,27.30
2022-12-15T19:03:56.794Z,22.55
2022-12-15T19:06:25.991Z,25.95
2022-12-15T19:08:53.193Z,27.83
2022-12-15T19:14:04.933Z,27.70
2022-12-15T19:16:31.979Z,24.45
2022-12-15T19:18:59.008Z,25.20
2022-12-15T19:21:25.907Z,25.00
2022-12-15T19:23:52.802Z,23.33
2022-12-15T19:26:19.678Z,29.23
2022-12-15T19:28:46.589Z,25.75
2022-12-15T19:31:13.533Z,29.42
2022-12-15T19:33:40.446Z,24.50
2022-12-15T19:36:07.324Z,25.27
2022-12-15T19:38:34.224Z,25.35
2022-12-15T19:41:01.111Z,26.02
2022-12-15T19:43:27.989Z,26.15
2022-12-15T19:45:54.954Z,26.75
2022-12-15T19:48:24.167Z,28.52
2022-12-15T19:50:51.384Z,31.08
2022-12-15T19:53:18.312Z,29.40
2022-12-15T19:55:45.191Z,31.55
2022-12-15T19:58:12.109Z,34.47
2022-12-15T20:00:39.140Z,37.85
2022-12-15T20:03:06.388Z,36.20
2022-12-15T20:05:33.411Z,35.10
2022-12-15T20:08:00.301Z,35.72
2022-12-15T20:10:32.270Z,31.80
2022-12-15T20:12:59.655Z,36.70
2022-12-15T20:15:27.676Z,34.17
2022-12-15T20:17:54.563Z,34.30
2022-12-15T20:20:21.543Z,32.55
2022-12-15T20:22:48.447Z,32.80
2022-12-15T20:25:15.390Z,30.05
2022-12-15T20:27:42.270Z,34.78
2022-12-15T20:30:09.178Z,33.30
2022-12-15T20:32:38.537Z,37.17
2022-12-15T20:35:05.584Z,29.20
2022-12-15T20:37:32.480Z,32.60
2022-12-15T20:39:59.370Z,29.70
2022-12-15T20:42:26.276Z,33.65
2022-12-15T20:44:54.076Z,30.35
2022-12-15T20:47:21.491Z,33.58
2022-12-15T20:49:48.385Z,26.50
2022-12-15T20:52:20.178Z,27.63
2022-12-15T20:54:47.099Z,27.75
2022-12-15T21:03:11.913Z,25.00
2022-12-15T21:11:03.386Z,27.13
2022-12-15T21:16:32.418Z,26.70
2022-12-15T21:22:31.504Z,28.98
2022-12-15T21:41:17.380Z,27.93
2022-12-15T21:43:51.890Z,26.38
2022-12-15T21:46:32.478Z,28.48
2022-12-15T21:49:17.000Z,28.23
2022-12-15T21:54:34.505Z,30.67
2022-12-15T21:59:45.112Z,27.17
2022-12-15T22:04:55.734Z,28.00
2022-12-15T22:13:13.086Z,29.40
2022-12-15T22:15:55.566Z,27.63
2022-12-15T22:22:59.591Z,28.73
2022-12-15T22:26:54.473Z,26.20
2022-12-15T22:32:25.263Z,28.23
2022-12-15T22:35:00.230Z,28.58
2022-12-15T22:37:27.187Z,25.85
2022-12-15T22:39:54.757Z,28.88
2022-12-15T22:42:21.665Z,30.13
2022-12-15T22:44:48.560Z,34.15
2022-12-15T22:47:15.451Z,33.63
2022-12-15T22:50:10.251Z,34.58
2022-12-15T22:52:40.039Z,35.80
2022-12-15T22:57:54.106Z,35.30
2022-12-15T23:03:11.631Z,33.65
2022-12-15T23:08:29.569Z,32.40
2022-12-15T23:11:16.111Z,31.55
2022-12-15T23:15:51.107Z,30.05
2022-12-15T23:16:31.693Z,30.38
2022-12-15T23:41:26.194Z,27.75
2022-12-15T23:46:44.408Z,30.58
2022-12-15T23:49:11.374Z,27.52
2022-12-15T23:51:38.290Z,29.20
2022-12-15T23:54:05.540Z,28.88
2022-12-15T23:56:32.680Z,31.58
2022-12-15T23:58:59.618Z,29.67
